createdAt,value
2019-05-16T00:01:18.583Z,58.23
2019-05-16T00:03:53.420Z,58.39
2019-05-16T00:06:28.422Z,58.47
2019-05-16T00:09:21.991Z,58.47
2019-05-16T00:11:55.273Z,58.58
2019-05-16T00:14:31.698Z,58.60
2019-05-16T00:17:08.331Z,58.66
2019-05-16T00:19:41.141Z,58.86
2019-05-16T00:22:18.030Z,59.03
2019-05-16T00:24:51.015Z,59.11
2019-05-16T00:27:27.906Z,59.25
2019-05-16T00:30:02.784Z,59.35
2019-05-16T00:32:36.082Z,59.36
2019-05-16T00:35:10.445Z,59.53
2019-05-16T00:37:45.199Z,59.68
2019-05-16T00:40:18.817Z,59.70
2019-05-16T00:42:51.741Z,59.77
2019-05-16T00:45:24.079Z,59.89
2019-05-16T00:47:58.522Z,60.04
2019-05-16T00:50:31.352Z,60.29
2019-05-16T00:53:05.159Z,60.41
2019-05-16T00:55:38.939Z,60.55
2019-05-16T00:58:11.753Z,60.71
2019-05-16T01:00:50.312Z,60.94
2019-05-16T01:03:23.183Z,60.99
2019-05-16T01:05:58.098Z,61.13
2019-05-16T01:08:31.053Z,61.22
2019-05-16T01:11:03.752Z,61.15
2019-05-16T01:13:39.498Z,61.28
2019-05-16T01:19:38.001Z,61.39
2019-05-16T01:22:11.738Z,61.50
2019-05-16T01:24:44.924Z,61.55
2019-05-16T01:27:18.609Z,61.65
2019-05-16T01:29:51.099Z,61.84
2019-05-16T01:32:25.166Z,61.84
2019-05-16T01:34:59.036Z,61.91
2019-05-16T01:37:31.869Z,61.97
2019-05-16T01:40:05.183Z,62.02
2019-05-16T01:42:38.562Z,61.90
2019-05-16T01:45:14.815Z,61.75
2019-05-16T01:47:48.215Z,62.04
2019-05-16T01:50:20.911Z,62.33
2019-05-16T01:52:53.775Z,62.39
2019-05-16T01:55:28.474Z,62.48
2019-05-16T01:58:01.128Z,62.59
2019-05-16T02:00:37.794Z,62.69
2019-05-16T02:03:19.112Z,62.85
2019-05-16T02:05:51.715Z,62.79
2019-05-16T02:08:24.317Z,62.79
2019-05-16T02:10:58.416Z,62.80
2019-05-16T02:13:31.383Z,62.73
2019-05-16T02:16:03.891Z,62.67
2019-05-16T02:18:38.177Z,62.65
2019-05-16T02:21:12.151Z,62.73
2019-05-16T02:23:51.327Z,62.82
2019-05-16T02:26:33.716Z,62.85
2019-05-16T02:29:13.332Z,62.92
2019-05-16T02:31:46.441Z,63.00
2019-05-16T02:34:21.808Z,63.02
2019-05-16T02:37:14.613Z,63.12
2019-05-16T02:39:54.619Z,63.25
2019-05-16T02:42:30.716Z,63.44
2019-05-16T02:45:10.956Z,63.51
2019-05-16T02:47:45.053Z,63.50
2019-05-16T02:50:17.701Z,63.58
2019-05-16T02:52:51.794Z,63.74
2019-05-16T02:55:24.686Z,63.92
2019-05-16T02:58:00.381Z,64.09
2019-05-16T03:00:36.852Z,64.06
2019-05-16T03:03:12.087Z,63.97
2019-05-16T03:05:45.042Z,63.86
2019-05-16T03:08:20.727Z,63.86
2019-05-16T03:10:54.030Z,63.88
2019-05-16T03:13:31.054Z,64.00
2019-05-16T03:16:11.697Z,64.14
2019-05-16T03:18:46.598Z,64.06
2019-05-16T03:21:21.626Z,64.10
2019-05-16T03:23:56.121Z,64.10
2019-05-16T03:26:31.511Z,63.98
2019-05-16T03:29:05.478Z,63.85
2019-05-16T03:31:43.738Z,64.17
2019-05-16T03:34:43.911Z,64.59
2019-05-16T03:37:24.406Z,64.63
2019-05-16T03:40:03.184Z,64.80
2019-05-16T03:42:35.871Z,65.00
2019-05-16T03:45:10.870Z,65.25
2019-05-16T03:47:44.409Z,65.21
2019-05-16T03:50:17.319Z,65.07
2019-05-16T03:52:50.809Z,65.14
2019-05-16T03:55:23.630Z,65.34
2019-05-16T03:57:56.304Z,65.47
2019-05-16T04:00:52.280Z,65.88
2019-05-16T04:03:28.896Z,65.31
2019-05-16T04:06:03.313Z,65.24
2019-05-16T04:08:40.985Z,65.12
2019-05-16T04:11:14.021Z,65.09
2019-05-16T04:13:46.550Z,65.12
2019-05-16T04:16:20.897Z,65.29
2019-05-16T04:18:54.135Z,65.48
2019-05-16T04:21:26.819Z,65.50
2019-05-16T04:24:01.284Z,65.52
2019-05-16T04:26:36.026Z,65.49
2019-05-16T04:29:11.972Z,65.40
2019-05-16T04:31:45.055Z,65.28
2019-05-16T04:34:20.440Z,65.22
2019-05-16T04:36:53.408Z,65.28
2019-05-16T04:39:26.008Z,65.25
2019-05-16T04:42:01.443Z,65.12
2019-05-16T04:44:41.359Z,64.74
2019-05-16T04:47:21.642Z,64.30
2019-05-16T04:49:54.366Z,63.87
2019-05-16T04:52:27.153Z,63.59
2019-05-16T04:55:00.725Z,62.93
2019-05-16T04:57:33.536Z,62.58
2019-05-16T05:00:07.128Z,62.13
2019-05-16T05:02:41.807Z,61.77
2019-05-16T05:05:14.872Z,61.42
2019-05-16T05:07:47.766Z,61.28
2019-05-16T05:10:20.835Z,60.69
2019-05-16T05:12:53.534Z,60.46
2019-05-16T05:15:26.896Z,60.29
2019-05-16T05:18:15.094Z,60.16
2019-05-16T05:20:47.806Z,59.84
2019-05-16T05:23:20.919Z,59.66
2019-05-16T05:25:53.795Z,59.72
2019-05-16T05:28:29.767Z,59.66
2019-05-16T05:31:02.693Z,59.37
2019-05-16T05:33:35.181Z,59.15
2019-05-16T05:36:12.559Z,59.24
2019-05-16T05:38:48.257Z,58.64
2019-05-16T05:41:21.865Z,58.94
2019-05-16T05:43:54.608Z,58.77
2019-05-16T05:46:31.419Z,58.42
2019-05-16T05:49:04.516Z,58.20
2019-05-16T05:51:36.989Z,57.86
2019-05-16T05:54:10.850Z,57.95
2019-05-16T05:56:44.118Z,57.73
2019-05-16T05:59:16.713Z,57.65
2019-05-16T06:01:51.904Z,57.43
2019-05-16T06:04:24.540Z,57.17
2019-05-16T06:07:00.916Z,57.62
2019-05-16T06:09:34.323Z,57.32
2019-05-16T06:12:07.587Z,56.99
2019-05-16T06:14:42.695Z,56.68
2019-05-16T06:17:15.288Z,56.70
2019-05-16T06:19:49.680Z,56.84
2019-05-16T06:22:22.686Z,56.03
2019-05-16T06:24:57.223Z,54.79
2019-05-16T06:27:31.769Z,54.43
2019-05-16T06:30:06.572Z,53.71
2019-05-16T06:32:39.550Z,53.16
2019-05-16T06:35:12.836Z,53.12
2019-05-16T06:37:45.493Z,53.50
2019-05-16T06:40:20.138Z,52.91
2019-05-16T06:42:52.920Z,53.18
2019-05-16T06:45:25.494Z,53.36
2019-05-16T06:48:00.776Z,53.21
2019-05-16T06:50:33.454Z,53.18
2019-05-16T06:53:06.066Z,53.30
2019-05-16T06:55:40.103Z,53.47
2019-05-16T06:58:22.923Z,53.36
2019-05-16T07:00:55.423Z,53.53
2019-05-16T07:03:30.660Z,53.78
2019-05-16T07:06:04.391Z,53.76
2019-05-16T07:08:36.905Z,53.48
2019-05-16T07:11:10.562Z,53.23
2019-05-16T07:13:43.307Z,53.16
2019-05-16T07:16:16.079Z,52.75
2019-05-16T07:18:50.584Z,53.00
2019-05-16T07:21:31.230Z,52.96
2019-05-16T07:24:10.930Z,53.08
2019-05-16T07:26:45.315Z,52.76
2019-05-16T07:29:20.066Z,52.54
2019-05-16T07:32:00.532Z,52.30
2019-05-16T07:34:40.319Z,52.56
2019-05-16T07:37:19.972Z,52.91
2019-05-16T07:40:08.483Z,52.77
2019-05-16T07:42:51.414Z,53.03
2019-05-16T07:45:24.576Z,53.48
2019-05-16T07:47:57.229Z,52.65
2019-05-16T07:50:30.424Z,52.48
2019-05-16T07:53:03.057Z,52.53
2019-05-16T07:55:36.840Z,52.79
2019-05-16T07:58:10.273Z,52.66
2019-05-16T08:00:53.301Z,52.42
2019-05-16T08:03:31.072Z,53.02
2019-05-16T08:06:03.728Z,53.10
2019-05-16T08:08:40.205Z,53.25
2019-05-16T08:11:13.580Z,53.41
2019-05-16T08:13:47.471Z,53.40
2019-05-16T08:16:23.109Z,53.55
2019-05-16T08:18:57.260Z,53.74
2019-05-16T08:21:31.024Z,53.83
2019-05-16T08:24:07.261Z,53.66
2019-05-16T08:28:41.216Z,53.47
2019-05-16T08:31:16.759Z,53.24
2019-05-16T08:33:54.140Z,53.05
2019-05-16T08:36:31.336Z,53.14
2019-05-16T08:39:07.123Z,53.40
2019-05-16T08:46:20.554Z,52.87
2019-05-16T08:48:55.418Z,52.93
2019-05-16T08:51:28.006Z,53.01
2019-05-16T08:54:01.776Z,52.99
2019-05-16T08:56:34.658Z,53.32
2019-05-16T08:59:07.237Z,53.59
2019-05-16T09:01:48.286Z,53.43
2019-05-16T09:04:33.179Z,53.28
2019-05-16T09:07:06.403Z,53.36
2019-05-16T09:09:44.303Z,53.37
2019-05-16T09:10:34.491Z,53.20
2019-05-16T09:12:21.663Z,52.91
2019-05-16T09:14:59.342Z,52.29
2019-05-16T09:17:37.329Z,51.89
2019-05-16T09:20:13.443Z,51.77
2019-05-16T09:22:48.103Z,51.46
2019-05-16T09:25:21.669Z,50.91
2019-05-16T09:27:56.748Z,50.47
2019-05-16T09:30:29.569Z,50.93
2019-05-16T09:33:02.741Z,50.71
2019-05-16T09:35:37.010Z,51.15
2019-05-16T09:38:10.809Z,50.84
2019-05-16T09:40:47.821Z,50.85
2019-05-16T09:43:22.371Z,50.84
2019-05-16T09:45:59.944Z,50.36
2019-05-16T09:48:37.959Z,50.04
2019-05-16T09:51:17.077Z,49.30
2019-05-16T09:53:50.903Z,49.02
2019-05-16T09:56:26.846Z,48.28
2019-05-16T09:59:01.511Z,47.72
2019-05-16T10:01:37.548Z,48.38
2019-05-16T10:04:11.891Z,47.63
2019-05-16T10:06:44.639Z,46.07
2019-05-16T10:09:18.152Z,45.59
2019-05-16T10:12:06.941Z,45.56
2019-05-16T10:14:47.075Z,45.18
2019-05-16T10:17:21.372Z,45.05
2019-05-16T10:20:00.125Z,44.48
2019-05-16T10:22:37.330Z,44.91
2019-05-16T10:25:12.099Z,44.75
2019-05-16T10:27:47.601Z,44.76
2019-05-16T10:30:20.857Z,43.84
2019-05-16T10:32:54.570Z,43.03
2019-05-16T10:35:30.039Z,43.48
2019-05-16T10:38:04.770Z,42.44
2019-05-16T10:40:38.169Z,43.12
2019-05-16T10:43:10.734Z,42.67
2019-05-16T10:45:46.241Z,42.66
2019-05-16T10:48:19.773Z,43.09
2019-05-16T10:50:54.399Z,44.19
2019-05-16T10:53:57.966Z,43.15
2019-05-16T10:56:34.919Z,44.00
2019-05-16T10:59:46.839Z,43.45
2019-05-16T11:02:37.107Z,43.32
2019-05-16T11:05:25.805Z,44.24
2019-05-16T11:08:04.271Z,43.84
2019-05-16T11:10:37.413Z,43.00
2019-05-16T11:13:10.222Z,43.13
2019-05-16T11:15:42.995Z,42.28
2019-05-16T11:18:17.980Z,41.83
2019-05-16T11:20:50.978Z,41.49
2019-05-16T11:23:24.481Z,42.03
2019-05-16T11:25:59.184Z,42.23
2019-05-16T11:28:31.999Z,42.36
2019-05-16T11:31:07.683Z,42.95
2019-05-16T11:33:40.462Z,42.66
2019-05-16T11:36:13.191Z,42.42
2019-05-16T11:38:47.463Z,42.89
2019-05-16T11:41:21.616Z,42.47
2019-05-16T11:43:54.156Z,42.63
2019-05-16T11:46:28.170Z,42.85
2019-05-16T11:49:01.814Z,43.25
2019-05-16T11:51:38.210Z,43.91
2019-05-16T11:54:11.063Z,44.43
2019-05-16T11:56:43.531Z,44.24
2019-05-16T11:59:16.439Z,44.09
2019-05-16T12:01:50.174Z,43.90
2019-05-16T12:04:27.893Z,43.73
2019-05-16T12:07:01.666Z,43.99
2019-05-16T12:09:37.280Z,43.91
2019-05-16T12:12:20.986Z,43.65
2019-05-16T12:14:55.979Z,44.55
2019-05-16T12:17:37.960Z,43.92
2019-05-16T12:20:16.621Z,43.49
2019-05-16T12:22:51.456Z,44.38
2019-05-16T12:25:24.578Z,44.62
2019-05-16T12:27:58.038Z,44.79
2019-05-16T12:30:30.661Z,44.57
2019-05-16T12:33:03.252Z,44.31
2019-05-16T12:35:36.855Z,44.33
2019-05-16T12:38:11.956Z,42.71
2019-05-16T12:40:47.594Z,41.58
2019-05-16T12:43:21.492Z,41.20
2019-05-16T12:45:57.246Z,40.33
2019-05-16T12:48:29.848Z,40.61
2019-05-16T12:51:03.314Z,40.00
2019-05-16T12:53:57.020Z,40.08
2019-05-16T12:56:29.888Z,39.39
2019-05-16T12:59:02.400Z,40.92
2019-05-16T13:01:38.514Z,39.97
2019-05-16T13:04:18.539Z,39.18
2019-05-16T13:06:51.869Z,39.32
2019-05-16T13:09:26.554Z,39.89
2019-05-16T13:11:59.438Z,40.88
2019-05-16T13:14:39.705Z,41.02
2019-05-16T13:17:16.712Z,41.97
2019-05-16T13:19:52.544Z,41.18
2019-05-16T13:22:27.549Z,40.76
2019-05-16T13:25:01.048Z,41.77
2019-05-16T13:27:33.999Z,43.01
2019-05-16T13:30:08.871Z,42.56
2019-05-16T13:32:42.524Z,42.66
2019-05-16T13:35:17.008Z,43.22
2019-05-16T13:37:51.876Z,43.43
2019-05-16T13:40:27.633Z,44.23
2019-05-16T13:43:01.479Z,44.67
2019-05-16T13:45:34.038Z,44.86
2019-05-16T13:48:08.298Z,45.94
2019-05-16T13:50:42.459Z,46.11
2019-05-16T13:53:16.360Z,47.88
2019-05-16T13:55:49.262Z,47.24
2019-05-16T13:58:21.897Z,46.79
2019-05-16T14:00:56.992Z,46.09
2019-05-16T14:03:29.918Z,45.18
2019-05-16T14:06:03.415Z,45.06
2019-05-16T14:08:37.494Z,45.36
2019-05-16T14:11:10.901Z,45.40
2019-05-16T14:13:46.771Z,45.64
2019-05-16T14:16:20.057Z,46.26
2019-05-16T14:18:53.756Z,46.54
2019-05-16T14:21:26.475Z,45.95
2019-05-16T14:24:03.202Z,46.18
2019-05-16T14:26:38.646Z,47.15
2019-05-16T14:29:12.610Z,47.51
2019-05-16T14:31:46.986Z,47.82
2019-05-16T14:34:22.963Z,48.61
2019-05-16T14:36:57.842Z,48.25
2019-05-16T14:39:30.723Z,48.42
2019-05-16T14:42:04.175Z,49.14
2019-05-16T14:44:58.411Z,49.90
2019-05-16T14:47:41.936Z,50.19
2019-05-16T14:50:17.051Z,50.42
2019-05-16T14:52:49.693Z,50.85
2019-05-16T14:55:23.143Z,50.84
2019-05-16T14:57:56.705Z,51.02
2019-05-16T15:00:33.540Z,51.59
2019-05-16T15:03:08.399Z,51.80
2019-05-16T15:05:42.894Z,51.07
2019-05-16T15:08:18.218Z,51.19
2019-05-16T15:10:51.016Z,50.91
2019-05-16T15:13:23.674Z,50.85
2019-05-16T15:15:57.579Z,50.54
2019-05-16T15:18:38.615Z,50.57
2019-05-16T15:21:11.887Z,51.20
2019-05-16T15:23:46.876Z,51.63
2019-05-16T15:26:21.443Z,51.72
2019-05-16T15:28:58.384Z,51.76
2019-05-16T15:31:32.510Z,51.88
2019-05-16T15:34:05.066Z,52.03
2019-05-16T15:36:38.749Z,51.62
2019-05-16T15:39:11.508Z,52.02
2019-05-16T15:41:44.749Z,51.71
2019-05-16T15:44:17.461Z,51.62
2019-05-16T15:46:50.162Z,51.67
2019-05-16T15:49:26.547Z,51.54
2019-05-16T15:51:59.425Z,51.15
2019-05-16T15:54:37.495Z,50.99
2019-05-16T15:57:18.833Z,50.98
2019-05-16T15:59:51.352Z,51.32
2019-05-16T16:02:27.174Z,50.56
2019-05-16T16:05:01.470Z,50.24
2019-05-16T16:07:37.741Z,50.50
2019-05-16T16:10:12.304Z,50.64
2019-05-16T16:12:47.712Z,50.93
2019-05-16T16:15:23.906Z,51.23
2019-05-16T16:17:57.458Z,51.60
2019-05-16T16:20:30.115Z,51.02
2019-05-16T16:23:06.610Z,51.24
2019-05-16T16:25:43.841Z,51.28
2019-05-16T16:28:17.988Z,51.29
2019-05-16T16:30:51.243Z,51.28
2019-05-16T16:33:29.067Z,51.46
2019-05-16T16:36:03.215Z,51.41
2019-05-16T16:38:37.076Z,51.45
2019-05-16T16:41:09.848Z,51.16
2019-05-16T16:43:47.695Z,50.91
2019-05-16T16:46:20.618Z,50.80
2019-05-16T16:48:56.883Z,50.46
2019-05-16T16:51:32.384Z,50.72
2019-05-16T16:54:07.465Z,51.46
2019-05-16T16:56:40.238Z,51.77
2019-05-16T16:59:12.874Z,51.25
2019-05-16T17:01:49.461Z,51.46
2019-05-16T17:04:23.655Z,51.74
2019-05-16T17:07:01.178Z,51.95
2019-05-16T17:09:33.727Z,52.12
2019-05-16T17:12:06.809Z,52.17
2019-05-16T17:14:40.431Z,52.52
2019-05-16T17:17:12.986Z,52.64
2019-05-16T17:19:47.383Z,52.75
2019-05-16T17:22:21.123Z,52.85
2019-05-16T17:24:56.527Z,52.77
2019-05-16T17:27:29.479Z,52.74
2019-05-16T17:30:07.265Z,52.58
2019-05-16T17:32:44.105Z,52.61
2019-05-16T17:35:18.810Z,52.61
2019-05-16T17:37:52.730Z,53.03
2019-05-16T17:40:27.451Z,53.31
2019-05-16T17:43:02.529Z,53.35
2019-05-16T17:45:37.640Z,53.19
2019-05-16T17:48:10.988Z,53.43
2019-05-16T17:50:46.542Z,53.63
2019-05-16T17:53:21.141Z,53.84
2019-05-16T17:55:57.139Z,53.90
2019-05-16T17:58:30.672Z,54.29
2019-05-16T18:01:07.223Z,54.56
2019-05-16T18:03:42.573Z,54.54
2019-05-16T18:06:16.989Z,54.87
2019-05-16T18:08:51.148Z,55.21
2019-05-16T18:11:26.943Z,55.83
2019-05-16T18:14:06.131Z,56.03
2019-05-16T18:16:52.418Z,56.26
2019-05-16T18:19:32.457Z,56.90
2019-05-16T18:22:12.800Z,57.60
2019-05-16T18:24:48.679Z,58.31
2019-05-16T18:27:40.639Z,58.99
2019-05-16T18:30:27.126Z,59.39
2019-05-16T18:33:01.858Z,59.72
2019-05-16T18:35:36.730Z,60.15
2019-05-16T18:38:11.524Z,60.35
2019-05-16T18:40:47.173Z,60.62
2019-05-16T18:43:21.440Z,61.26
2019-05-16T18:45:56.705Z,61.29
2019-05-16T18:48:36.764Z,61.23
2019-05-16T18:51:13.693Z,61.10
2019-05-16T18:53:47.414Z,61.25
2019-05-16T18:56:22.269Z,61.30
2019-05-16T18:58:57.371Z,61.25
2019-05-16T19:01:31.497Z,61.87
2019-05-16T19:04:06.851Z,62.86
2019-05-16T19:06:40.589Z,62.99
2019-05-16T19:09:16.480Z,63.61
2019-05-16T19:11:52.534Z,63.59
2019-05-16T19:14:28.073Z,63.69
2019-05-16T19:17:00.717Z,63.80
2019-05-16T19:19:37.598Z,63.72
2019-05-16T19:22:12.168Z,63.94
2019-05-16T19:24:46.454Z,63.90
2019-05-16T19:27:28.891Z,63.80
2019-05-16T19:30:10.775Z,63.83
2019-05-16T19:32:46.884Z,64.02
2019-05-16T19:35:21.324Z,64.28
2019-05-16T19:37:56.857Z,64.43
2019-05-16T19:40:30.403Z,64.62
2019-05-16T19:43:07.228Z,64.79
2019-05-16T19:45:41.714Z,64.98
2019-05-16T19:48:17.305Z,65.14
2019-05-16T19:50:53.434Z,65.56
2019-05-16T19:53:27.208Z,65.79
2019-05-16T19:56:02.525Z,66.00
2019-05-16T19:58:37.213Z,66.03
2019-05-16T20:01:10.051Z,66.34
2019-05-16T20:03:43.320Z,66.63
2019-05-16T20:06:16.833Z,67.01
2019-05-16T20:08:50.460Z,67.45
2019-05-16T20:11:27.623Z,67.82
2019-05-16T20:14:01.600Z,68.37
2019-05-16T20:16:36.722Z,68.91
2019-05-16T20:19:11.527Z,69.51
2019-05-16T20:21:47.566Z,69.75
2019-05-16T20:24:23.015Z,70.25
2019-05-16T20:26:57.395Z,70.57
2019-05-16T20:29:30.033Z,70.91
2019-05-16T20:32:04.758Z,71.17
2019-05-16T20:34:38.264Z,71.63
2019-05-16T20:37:10.982Z,72.22
2019-05-16T20:39:46.489Z,72.37
2019-05-16T20:42:20.122Z,72.69
2019-05-16T20:44:52.680Z,73.02
2019-05-16T20:47:28.051Z,73.49
2019-05-16T20:50:01.461Z,73.55
2019-05-16T20:52:33.928Z,73.75
2019-05-16T20:55:07.383Z,74.04
2019-05-16T20:57:40.691Z,74.14
2019-05-16T21:00:17.401Z,73.80
2019-05-16T21:02:52.921Z,73.67
2019-05-16T21:05:26.798Z,73.46
2019-05-16T21:08:00.203Z,73.45
2019-05-16T21:10:32.748Z,73.40
2019-05-16T21:13:07.136Z,73.71
2019-05-16T21:15:41.883Z,73.92
2019-05-16T21:18:16.621Z,73.70
2019-05-16T21:20:50.371Z,73.84
2019-05-16T21:23:23.779Z,73.75
2019-05-16T21:25:57.302Z,73.77
2019-05-16T21:28:32.525Z,73.69
2019-05-16T21:31:07.248Z,73.70
2019-05-16T21:33:42.909Z,73.72
2019-05-16T21:36:19.108Z,73.87
2019-05-16T21:38:53.162Z,73.95
2019-05-16T21:41:27.109Z,74.07
2019-05-16T21:44:00.992Z,74.15
2019-05-16T21:46:36.411Z,74.11
2019-05-16T21:49:10.648Z,74.41
2019-05-16T21:51:46.629Z,74.65
2019-05-16T21:54:20.203Z,74.67
2019-05-16T21:56:57.036Z,74.75
2019-05-16T21:59:29.836Z,75.03
2019-05-16T22:02:03.167Z,75.06
2019-05-16T22:04:36.811Z,75.25
2019-05-16T22:07:09.709Z,75.28
2019-05-16T22:09:42.798Z,75.46
2019-05-16T22:12:18.551Z,75.71
2019-05-16T22:14:53.763Z,75.73
2019-05-16T22:17:27.545Z,75.74
2019-05-16T22:20:00.141Z,75.86
2019-05-16T22:22:32.684Z,76.09
2019-05-16T22:25:07.466Z,76.21
2019-05-16T22:27:41.330Z,76.23
2019-05-16T22:30:17.113Z,76.16
2019-05-16T22:32:49.784Z,76.20
2019-05-16T22:35:22.304Z,76.16
2019-05-16T22:37:59.081Z,76.14
2019-05-16T22:40:33.357Z,76.18
2019-05-16T22:43:09.698Z,76.25
2019-05-16T22:45:43.821Z,76.53
2019-05-16T22:48:26.594Z,76.57
2019-05-16T22:50:59.642Z,76.65
2019-05-16T22:53:36.675Z,76.77
2019-05-16T22:56:12.595Z,76.85
2019-05-16T22:58:47.294Z,76.95
2019-05-16T23:01:20.555Z,77.00
2019-05-16T23:03:53.301Z,77.17
2019-05-16T23:06:26.930Z,77.33
2019-05-16T23:09:00.245Z,77.40
2019-05-16T23:11:32.800Z,77.30
2019-05-16T23:14:13.627Z,77.45
2019-05-16T23:16:47.319Z,77.41
2019-05-16T23:19:20.688Z,77.20
2019-05-16T23:21:53.363Z,77.13
2019-05-16T23:24:26.591Z,77.00
2019-05-16T23:26:59.131Z,76.83
2019-05-16T23:29:31.583Z,76.59
2019-05-16T23:32:07.171Z,76.47
2019-05-16T23:34:40.334Z,76.48
2019-05-16T23:37:17.419Z,76.38
2019-05-16T23:39:50.842Z,76.35
2019-05-16T23:42:26.296Z,76.34
2019-05-16T23:44:59.312Z,76.29
2019-05-16T23:47:33.719Z,76.47
2019-05-16T23:50:07.715Z,76.52
2019-05-16T23:52:40.231Z,76.66
2019-05-16T23:55:12.895Z,76.81
2019-05-16T23:57:46.580Z,76.91
